sensor_id;sensor_type;location;lat;lon;timestamp;temperature;humidity
1025;DHT22;501;48.214;11.350;2023-11-19T00:00:11;6.60;72.00
1025;DHT22;501;48.214;11.350;2023-11-19T00:02:40;6.50;72.20
1025;DHT22;501;48.214;11.350;2023-11-19T00:05:06;6.50;72.80
1025;DHT22;501;48.214;11.350;2023-11-19T00:07:37;6.50;73.20
1025;DHT22;501;48.214;11.350;2023-11-19T00:10:05;6.60;73.90
1025;DHT22;501;48.214;11.350;2023-11-19T00:12:32;6.60;74.40
1025;DHT22;501;48.214;11.350;2023-11-19T00:14:58;6.60;74.90
1025;DHT22;501;48.214;11.350;2023-11-19T00:17:23;6.60;74.80
1025;DHT22;501;48.214;11.350;2023-11-19T00:19:49;6.60;75.20
1025;DHT22;501;48.214;11.350;2023-11-19T00:22:17;6.70;76.10
1025;DHT22;501;48.214;11.350;2023-11-19T00:24:42;6.80;75.30
1025;DHT22;501;48.214;11.350;2023-11-19T00:27:08;6.70;75.60
1025;DHT22;501;48.214;11.350;2023-11-19T00:29:35;6.80;76.10
1025;DHT22;501;48.214;11.350;2023-11-19T00:32:01;6.80;76.50
1025;DHT22;501;48.214;11.350;2023-11-19T00:34:27;6.80;77.00
1025;DHT22;501;48.214;11.350;2023-11-19T00:36:53;6.90;77.70
1025;DHT22;501;48.214;11.350;2023-11-19T00:39:20;6.90;78.20
1025;DHT22;501;48.214;11.350;2023-11-19T00:41:46;6.90;79.00
1025;DHT22;501;48.214;11.350;2023-11-19T00:44:12;7.00;80.60
1025;DHT22;501;48.214;11.350;2023-11-19T00:46:38;7.00;81.10
1025;DHT22;501;48.214;11.350;2023-11-19T00:49:03;7.00;82.40
1025;DHT22;501;48.214;11.350;2023-11-19T00:51:29;7.00;83.40
1025;DHT22;501;48.214;11.350;2023-11-19T00:53:57;7.00;84.10
1025;DHT22;501;48.214;11.350;2023-11-19T00:56:22;7.00;85.00
1025;DHT22;501;48.214;11.350;2023-11-19T00:58:48;7.10;85.80
1025;DHT22;501;48.214;11.350;2023-11-19T01:01:14;7.10;86.60
1025;DHT22;501;48.214;11.350;2023-11-19T01:03:39;7.10;86.70
1025;DHT22;501;48.214;11.350;2023-11-19T01:06:05;7.10;87.00
1025;DHT22;501;48.214;11.350;2023-11-19T01:08:31;7.10;87.40
1025;DHT22;501;48.214;11.350;2023-11-19T01:10:57;7.20;87.80
1025;DHT22;501;48.214;11.350;2023-11-19T01:13:23;7.20;87.70
1025;DHT22;501;48.214;11.350;2023-11-19T01:15:50;7.20;87.80
1025;DHT22;501;48.214;11.350;2023-11-19T01:18:15;7.30;87.50
1025;DHT22;501;48.214;11.350;2023-11-19T01:20:42;7.30;87.20
1025;DHT22;501;48.214;11.350;2023-11-19T01:23:07;7.30;86.40
1025;DHT22;501;48.214;11.350;2023-11-19T01:25:33;7.40;85.80
1025;DHT22;501;48.214;11.350;2023-11-19T01:27:59;7.40;86.10
1025;DHT22;501;48.214;11.350;2023-11-19T01:30:25;7.40;86.70
1025;DHT22;501;48.214;11.350;2023-11-19T01:32:51;7.40;87.80
1025;DHT22;501;48.214;11.350;2023-11-19T01:35:17;7.40;88.90
1025;DHT22;501;48.214;11.350;2023-11-19T01:37:42;7.50;89.80
1025;DHT22;501;48.214;11.350;2023-11-19T01:40:08;7.50;89.00
1025;DHT22;501;48.214;11.350;2023-11-19T01:42:40;7.50;89.00
1025;DHT22;501;48.214;11.350;2023-11-19T01:45:06;7.50;91.50
1025;DHT22;501;48.214;11.350;2023-11-19T01:47:35;7.50;92.90
1025;DHT22;501;48.214;11.350;2023-11-19T01:50:02;7.60;96.30
1025;DHT22;501;48.214;11.350;2023-11-19T01:52:33;7.70;97.80
1025;DHT22;501;48.214;11.350;2023-11-19T01:55:00;7.80;99.10
1025;DHT22;501;48.214;11.350;2023-11-19T01:57:26;7.80;99.90
1025;DHT22;501;48.214;11.350;2023-11-19T01:59:52;7.90;99.90
1025;DHT22;501;48.214;11.350;2023-11-19T02:02:19;8.00;99.90
1025;DHT22;501;48.214;11.350;2023-11-19T02:04:49;8.00;99.90
1025;DHT22;501;48.214;11.350;2023-11-19T02:07:16;8.00;99.90
1025;DHT22;501;48.214;11.350;2023-11-19T02:09:43;8.10;99.90
1025;DHT22;501;48.214;11.350;2023-11-19T02:12:09;8.10;99.90
1025;DHT22;501;48.214;11.350;2023-11-19T02:14:37;8.20;99.90
1025;DHT22;501;48.214;11.350;2023-11-19T02:17:03;8.30;99.90
1025;DHT22;501;48.214;11.350;2023-11-19T02:19:29;8.30;99.90
1025;DHT22;501;48.214;11.350;2023-11-19T02:21:54;8.40;99.90
1025;DHT22;501;48.214;11.350;2023-11-19T02:24:22;8.40;99.90
1025;DHT22;501;48.214;11.350;2023-11-19T02:27:10;8.50;99.90
1025;DHT22;501;48.214;11.350;2023-11-19T02:29:40;8.60;99.90
1025;DHT22;501;48.214;11.350;2023-11-19T02:32:06;8.70;99.90
1025;DHT22;501;48.214;11.350;2023-11-19T02:34:34;8.80;99.90
1025;DHT22;501;48.214;11.350;2023-11-19T02:37:00;8.80;99.90
1025;DHT22;501;48.214;11.350;2023-11-19T02:39:25;8.90;99.90
1025;DHT22;501;48.214;11.350;2023-11-19T02:41:51;8.90;99.90
1025;DHT22;501;48.214;11.350;2023-11-19T02:44:18;8.90;99.90
1025;DHT22;501;48.214;11.350;2023-11-19T02:46:44;9.00;99.90
1025;DHT22;501;48.214;11.350;2023-11-19T02:49:09;9.00;99.90
1025;DHT22;501;48.214;11.350;2023-11-19T02:51:35;9.10;99.90
1025;DHT22;501;48.214;11.350;2023-11-19T02:54:02;9.10;99.90
1025;DHT22;501;48.214;11.350;2023-11-19T02:56:29;9.10;99.90
1025;DHT22;501;48.214;11.350;2023-11-19T02:58:59;9.10;99.90
1025;DHT22;501;48.214;11.350;2023-11-19T03:01:28;9.10;99.90
1025;DHT22;501;48.214;11.350;2023-11-19T03:04:00;9.20;99.90
1025;DHT22;501;48.214;11.350;2023-11-19T03:06:27;9.20;99.90
1025;DHT22;501;48.214;11.350;2023-11-19T03:08:55;9.20;99.90
1025;DHT22;501;48.214;11.350;2023-11-19T03:11:20;9.20;99.90
1025;DHT22;501;48.214;11.350;2023-11-19T03:13:46;9.30;99.90
1025;DHT22;501;48.214;11.350;2023-11-19T03:16:12;9.30;99.90
1025;DHT22;501;48.214;11.350;2023-11-19T03:18:38;9.30;99.90
1025;DHT22;501;48.214;11.350;2023-11-19T03:21:06;9.40;99.90
1025;DHT22;501;48.214;11.350;2023-11-19T03:23:33;9.40;99.90
1025;DHT22;501;48.214;11.350;2023-11-19T03:26:00;9.40;99.90
1025;DHT22;501;48.214;11.350;2023-11-19T03:28:29;9.40;99.90
1025;DHT22;501;48.214;11.350;2023-11-19T03:30:56;9.40;99.90
1025;DHT22;501;48.214;11.350;2023-11-19T03:33:21;9.40;99.90
1025;DHT22;501;48.214;11.350;2023-11-19T03:35:47;9.40;99.90
1025;DHT22;501;48.214;11.350;2023-11-19T03:38:13;9.40;99.90
1025;DHT22;501;48.214;11.350;2023-11-19T03:40:40;9.50;99.90
1025;DHT22;501;48.214;11.350;2023-11-19T03:43:06;9.50;99.90
1025;DHT22;501;48.214;11.350;2023-11-19T03:45:31;9.40;99.90
1025;DHT22;501;48.214;11.350;2023-11-19T03:47:57;9.50;99.90
1025;DHT22;501;48.214;11.350;2023-11-19T03:50:22;9.50;99.90
1025;DHT22;501;48.214;11.350;2023-11-19T03:52:49;9.50;99.90
1025;DHT22;501;48.214;11.350;2023-11-19T03:55:15;9.50;99.90
1025;DHT22;501;48.214;11.350;2023-11-19T03:57:40;9.50;99.90
1025;DHT22;501;48.214;11.350;2023-11-19T04:00:07;9.50;99.90
1025;DHT22;501;48.214;11.350;2023-11-19T04:02:36;9.50;99.90
1025;DHT22;501;48.214;11.350;2023-11-19T04:05:02;9.50;99.90
1025;DHT22;501;48.214;11.350;2023-11-19T04:07:29;9.60;99.90
1025;DHT22;501;48.214;11.350;2023-11-19T04:09:55;9.60;99.90
1025;DHT22;501;48.214;11.350;2023-11-19T04:12:21;9.50;99.90
1025;DHT22;501;48.214;11.350;2023-11-19T04:14:47;9.50;99.90
1025;DHT22;501;48.214;11.350;2023-11-19T04:17:13;9.50;99.90
1025;DHT22;501;48.214;11.350;2023-11-19T04:19:38;9.50;99.90
1025;DHT22;501;48.214;11.350;2023-11-19T04:22:09;9.50;99.90
1025;DHT22;501;48.214;11.350;2023-11-19T04:24:36;9.50;99.90
1025;DHT22;501;48.214;11.350;2023-11-19T04:27:02;9.60;99.90
1025;DHT22;501;48.214;11.350;2023-11-19T04:29:30;9.60;99.90
1025;DHT22;501;48.214;11.350;2023-11-19T04:31:56;9.60;99.90
1025;DHT22;501;48.214;11.350;2023-11-19T04:34:22;9.60;99.90
1025;DHT22;501;48.214;11.350;2023-11-19T04:36:47;9.60;99.90
1025;DHT22;501;48.214;11.350;2023-11-19T04:39:13;9.60;99.90
1025;DHT22;501;48.214;11.350;2023-11-19T04:41:51;9.60;99.90
1025;DHT22;501;48.214;11.350;2023-11-19T04:44:18;9.70;99.90
1025;DHT22;501;48.214;11.350;2023-11-19T04:46:44;9.70;99.90
1025;DHT22;501;48.214;11.350;2023-11-19T04:49:11;9.70;99.90
1025;DHT22;501;48.214;11.350;2023-11-19T04:51:44;9.70;99.90
1025;DHT22;501;48.214;11.350;2023-11-19T04:54:10;9.70;99.90
1025;DHT22;501;48.214;11.350;2023-11-19T04:56:36;9.70;99.90
1025;DHT22;501;48.214;11.350;2023-11-19T04:59:05;9.70;99.90
1025;DHT22;501;48.214;11.350;2023-11-19T05:01:35;9.80;99.90
1025;DHT22;501;48.214;11.350;2023-11-19T05:04:01;9.80;99.90
1025;DHT22;501;48.214;11.350;2023-11-19T05:06:30;9.80;99.90
1025;DHT22;501;48.214;11.350;2023-11-19T05:09:00;9.80;99.90
1025;DHT22;501;48.214;11.350;2023-11-19T05:11:33;9.80;99.90
1025;DHT22;501;48.214;11.350;2023-11-19T05:13:59;9.80;99.90
1025;DHT22;501;48.214;11.350;2023-11-19T05:16:25;9.90;99.90
1025;DHT22;501;48.214;11.350;2023-11-19T05:18:51;9.90;99.90
1025;DHT22;501;48.214;11.350;2023-11-19T05:21:17;9.90;99.90
1025;DHT22;501;48.214;11.350;2023-11-19T05:23:43;9.90;99.90
1025;DHT22;501;48.214;11.350;2023-11-19T05:26:08;9.90;99.90
1025;DHT22;501;48.214;11.350;2023-11-19T05:28:38;9.90;99.90
1025;DHT22;501;48.214;11.350;2023-11-19T05:31:04;9.90;99.90
1025;DHT22;501;48.214;11.350;2023-11-19T05:33:31;9.90;99.90
1025;DHT22;501;48.214;11.350;2023-11-19T05:35:56;9.90;99.90
1025;DHT22;501;48.214;11.350;2023-11-19T05:38:22;9.90;99.90
1025;DHT22;501;48.214;11.350;2023-11-19T05:40:48;9.90;99.90
1025;DHT22;501;48.214;11.350;2023-11-19T05:43:14;9.90;99.90
1025;DHT22;501;48.214;11.350;2023-11-19T05:45:42;9.90;99.90
1025;DHT22;501;48.214;11.350;2023-11-19T05:48:08;9.90;99.90
1025;DHT22;501;48.214;11.350;2023-11-19T05:50:35;9.90;99.90
1025;DHT22;501;48.214;11.350;2023-11-19T05:53:00;9.90;99.90
1025;DHT22;501;48.214;11.350;2023-11-19T05:55:26;9.90;99.90
1025;DHT22;501;48.214;11.350;2023-11-19T05:57:53;9.90;99.90
1025;DHT22;501;48.214;11.350;2023-11-19T06:00:19;9.90;99.90
1025;DHT22;501;48.214;11.350;2023-11-19T06:02:45;9.90;99.90
1025;DHT22;501;48.214;11.350;2023-11-19T06:05:11;9.90;99.90
1025;DHT22;501;48.214;11.350;2023-11-19T06:07:37;10.00;99.90
1025;DHT22;501;48.214;11.350;2023-11-19T06:10:04;9.90;99.90
1025;DHT22;501;48.214;11.350;2023-11-19T06:12:33;10.00;99.90
1025;DHT22;501;48.214;11.350;2023-11-19T06:14:59;10.00;99.90
1025;DHT22;501;48.214;11.350;2023-11-19T06:17:25;10.00;99.90
1025;DHT22;501;48.214;11.350;2023-11-19T06:19:51;10.00;99.90
1025;DHT22;501;48.214;11.350;2023-11-19T06:22:17;10.00;99.90
1025;DHT22;501;48.214;11.350;2023-11-19T06:24:43;10.00;99.90
1025;DHT22;501;48.214;11.350;2023-11-19T06:27:08;10.00;99.90
1025;DHT22;501;48.214;11.350;2023-11-19T06:29:34;10.00;99.60
1025;DHT22;501;48.214;11.350;2023-11-19T06:32:00;10.00;99.70
1025;DHT22;501;48.214;11.350;2023-11-19T06:34:26;10.00;99.60
1025;DHT22;501;48.214;11.350;2023-11-19T06:36:52;10.00;99.90
1025;DHT22;501;48.214;11.350;2023-11-19T06:39:18;10.10;99.70
1025;DHT22;501;48.214;11.350;2023-11-19T06:41:47;10.10;99.90
1025;DHT22;501;48.214;11.350;2023-11-19T06:44:12;10.10;99.90
1025;DHT22;501;48.214;11.350;2023-11-19T06:46:39;10.10;99.90
1025;DHT22;501;48.214;11.350;2023-11-19T06:49:04;10.10;99.50
1025;DHT22;501;48.214;11.350;2023-11-19T06:51:30;10.20;99.10
1025;DHT22;501;48.214;11.350;2023-11-19T06:53:56;10.20;98.80
1025;DHT22;501;48.214;11.350;2023-11-19T06:56:22;10.20;98.90
1025;DHT22;501;48.214;11.350;2023-11-19T06:58:49;10.20;99.10
1025;DHT22;501;48.214;11.350;2023-11-19T07:01:16;10.20;98.90
1025;DHT22;501;48.214;11.350;2023-11-19T07:03:41;10.20;98.60
1025;DHT22;501;48.214;11.350;2023-11-19T07:06:07;10.30;98.50
1025;DHT22;501;48.214;11.350;2023-11-19T07:08:33;10.30;98.30
1025;DHT22;501;48.214;11.350;2023-11-19T07:10:59;10.30;98.10
1025;DHT22;501;48.214;11.350;2023-11-19T07:13:26;10.30;97.60
1025;DHT22;501;48.214;11.350;2023-11-19T07:15:53;10.30;97.80
1025;DHT22;501;48.214;11.350;2023-11-19T07:18:19;10.40;97.90
1025;DHT22;501;48.214;11.350;2023-11-19T07:20:47;10.40;97.50
1025;DHT22;501;48.214;11.350;2023-11-19T07:23:13;10.50;97.10
1025;DHT22;501;48.214;11.350;2023-11-19T07:25:42;10.50;97.10
1025;DHT22;501;48.214;11.350;2023-11-19T07:28:08;10.50;96.50
1025;DHT22;501;48.214;11.350;2023-11-19T07:30:35;10.50;96.30
1025;DHT22;501;48.214;11.350;2023-11-19T07:33:01;10.50;96.30
1025;DHT22;501;48.214;11.350;2023-11-19T07:35:29;10.60;95.80
1025;DHT22;501;48.214;11.350;2023-11-19T07:37:56;10.60;95.50
1025;DHT22;501;48.214;11.350;2023-11-19T07:40:23;10.70;95.20
1025;DHT22;501;48.214;11.350;2023-11-19T07:42:49;10.70;94.90
1025;DHT22;501;48.214;11.350;2023-11-19T07:45:15;10.70;95.10
1025;DHT22;501;48.214;11.350;2023-11-19T07:47:40;10.70;94.70
1025;DHT22;501;48.214;11.350;2023-11-19T07:50:06;10.70;94.40
1025;DHT22;501;48.214;11.350;2023-11-19T07:52:32;10.70;94.40
1025;DHT22;501;48.214;11.350;2023-11-19T07:54:58;10.70;94.70
1025;DHT22;501;48.214;11.350;2023-11-19T07:57:23;10.80;94.60
1025;DHT22;501;48.214;11.350;2023-11-19T07:59:50;10.80;94.60
1025;DHT22;501;48.214;11.350;2023-11-19T08:02:15;10.90;94.60
1025;DHT22;501;48.214;11.350;2023-11-19T08:04:41;10.90;94.20
1025;DHT22;501;48.214;11.350;2023-11-19T08:07:10;10.90;94.10
1025;DHT22;501;48.214;11.350;2023-11-19T08:09:36;10.90;93.90
1025;DHT22;501;48.214;11.350;2023-11-19T08:12:03;11.00;93.50
1025;DHT22;501;48.214;11.350;2023-11-19T08:14:30;11.10;92.80
1025;DHT22;501;48.214;11.350;2023-11-19T08:16:56;11.10;92.60
1025;DHT22;501;48.214;11.350;2023-11-19T08:19:22;11.20;92.20
1025;DHT22;501;48.214;11.350;2023-11-19T08:21:48;11.20;92.10
1025;DHT22;501;48.214;11.350;2023-11-19T08:24:13;11.20;91.90
1025;DHT22;501;48.214;11.350;2023-11-19T08:26:39;11.30;91.30
1025;DHT22;501;48.214;11.350;2023-11-19T08:29:05;11.30;90.90
1025;DHT22;501;48.214;11.350;2023-11-19T08:31:31;11.30;90.40
1025;DHT22;501;48.214;11.350;2023-11-19T08:33:56;11.30;89.90
1025;DHT22;501;48.214;11.350;2023-11-19T08:36:22;11.40;90.20
1025;DHT22;501;48.214;11.350;2023-11-19T08:38:47;11.40;90.00
1025;DHT22;501;48.214;11.350;2023-11-19T08:41:13;11.50;88.10
1025;DHT22;501;48.214;11.350;2023-11-19T08:43:39;11.50;88.10
1025;DHT22;501;48.214;11.350;2023-11-19T08:46:10;11.50;87.80
1025;DHT22;501;48.214;11.350;2023-11-19T08:48:36;11.60;87.90
1025;DHT22;501;48.214;11.350;2023-11-19T08:51:01;11.60;87.00
1025;DHT22;501;48.214;11.350;2023-11-19T08:53:27;11.60;86.40
1025;DHT22;501;48.214;11.350;2023-11-19T08:55:52;11.60;87.30
1025;DHT22;501;48.214;11.350;2023-11-19T08:58:18;11.60;86.40
1025;DHT22;501;48.214;11.350;2023-11-19T09:00:44;11.70;85.60
1025;DHT22;501;48.214;11.350;2023-11-19T09:03:10;11.70;86.50
1025;DHT22;501;48.214;11.350;2023-11-19T09:05:35;11.70;85.90
1025;DHT22;501;48.214;11.350;2023-11-19T09:08:02;11.80;86.10
1025;DHT22;501;48.214;11.350;2023-11-19T09:10:27;11.80;85.80
1025;DHT22;501;48.214;11.350;2023-11-19T09:12:54;11.80;84.00
1025;DHT22;501;48.214;11.350;2023-11-19T09:15:20;11.80;84.00
1025;DHT22;501;48.214;11.350;2023-11-19T09:17:46;11.90;84.10
1025;DHT22;501;48.214;11.350;2023-11-19T09:20:11;11.90;84.90
1025;DHT22;501;48.214;11.350;2023-11-19T09:22:37;11.90;83.50
1025;DHT22;501;48.214;11.350;2023-11-19T09:25:03;12.00;84.80
1025;DHT22;501;48.214;11.350;2023-11-19T09:27:30;12.00;82.80
1025;DHT22;501;48.214;11.350;2023-11-19T09:29:56;12.10;83.00
1025;DHT22;501;48.214;11.350;2023-11-19T09:32:24;12.10;80.30
1025;DHT22;501;48.214;11.350;2023-11-19T09:34:49;12.20;82.50
1025;DHT22;501;48.214;11.350;2023-11-19T09:37:15;12.10;84.30
1025;DHT22;501;48.214;11.350;2023-11-19T09:39:41;12.10;84.30
1025;DHT22;501;48.214;11.350;2023-11-19T09:42:10;12.10;85.30
1025;DHT22;501;48.214;11.350;2023-11-19T09:44:38;12.10;86.30
1025;DHT22;501;48.214;11.350;2023-11-19T09:47:05;12.10;87.40
1025;DHT22;501;48.214;11.350;2023-11-19T09:49:33;12.10;86.10
1025;DHT22;501;48.214;11.350;2023-11-19T09:51:59;12.20;86.80
1025;DHT22;501;48.214;11.350;2023-11-19T09:54:25;12.20;86.00
1025;DHT22;501;48.214;11.350;2023-11-19T09:56:50;12.30;85.50
1025;DHT22;501;48.214;11.350;2023-11-19T09:59:16;12.30;86.60
1025;DHT22;501;48.214;11.350;2023-11-19T10:01:45;12.40;84.50
1025;DHT22;501;48.214;11.350;2023-11-19T10:04:15;12.50;83.10
1025;DHT22;501;48.214;11.350;2023-11-19T10:06:42;12.50;80.70
1025;DHT22;501;48.214;11.350;2023-11-19T10:09:07;12.60;80.00
1025;DHT22;501;48.214;11.350;2023-11-19T10:11:33;12.60;78.30
1025;DHT22;501;48.214;11.350;2023-11-19T10:13:59;12.70;76.80
1025;DHT22;501;48.214;11.350;2023-11-19T10:16:30;12.70;76.80
1025;DHT22;501;48.214;11.350;2023-11-19T10:18:56;12.80;78.20
1025;DHT22;501;48.214;11.350;2023-11-19T10:21:22;12.80;75.70
1025;DHT22;501;48.214;11.350;2023-11-19T10:23:53;12.90;73.30
1025;DHT22;501;48.214;11.350;2023-11-19T10:26:20;12.90;72.70
1025;DHT22;501;48.214;11.350;2023-11-19T10:28:46;12.90;72.70
1025;DHT22;501;48.214;11.350;2023-11-19T10:31:13;12.90;72.70
1025;DHT22;501;48.214;11.350;2023-11-19T10:33:39;13.00;73.10
1025;DHT22;501;48.214;11.350;2023-11-19T10:36:05;13.00;72.90
1025;DHT22;501;48.214;11.350;2023-11-19T10:38:31;13.10;70.40
1025;DHT22;501;48.214;11.350;2023-11-19T10:40:56;13.10;70.60
1025;DHT22;501;48.214;11.350;2023-11-19T10:43:23;13.20;71.00
1025;DHT22;501;48.214;11.350;2023-11-19T10:45:49;13.20;69.80
1025;DHT22;501;48.214;11.350;2023-11-19T10:48:15;13.30;69.10
1025;DHT22;501;48.214;11.350;2023-11-19T10:50:42;13.40;67.20
1025;DHT22;501;48.214;11.350;2023-11-19T10:53:09;13.40;66.80
1025;DHT22;501;48.214;11.350;2023-11-19T10:55:39;13.50;66.20
1025;DHT22;501;48.214;11.350;2023-11-19T10:58:05;13.60;67.60
1025;DHT22;501;48.214;11.350;2023-11-19T11:03:18;13.80;63.00
1025;DHT22;501;48.214;11.350;2023-11-19T11:05:46;13.90;62.50
1025;DHT22;501;48.214;11.350;2023-11-19T11:08:13;14.00;61.20
1025;DHT22;501;48.214;11.350;2023-11-19T11:10:54;14.00;60.50
1025;DHT22;501;48.214;11.350;2023-11-19T11:13:22;14.10;60.10
1025;DHT22;501;48.214;11.350;2023-11-19T11:15:50;14.10;59.90
1025;DHT22;501;48.214;11.350;2023-11-19T11:18:16;14.10;60.20
1025;DHT22;501;48.214;11.350;2023-11-19T11:20:45;14.10;59.90
1025;DHT22;501;48.214;11.350;2023-11-19T11:28:44;14.10;59.80
1025;DHT22;501;48.214;11.350;2023-11-19T11:34:08;14.10;59.80
1025;DHT22;501;48.214;11.350;2023-11-19T11:37:03;14.10;59.60
1025;DHT22;501;48.214;11.350;2023-11-19T11:39:32;14.20;58.80
1025;DHT22;501;48.214;11.350;2023-11-19T11:45:05;14.30;58.40
1025;DHT22;501;48.214;11.350;2023-11-19T11:50:19;14.20;57.10
1025;DHT22;501;48.214;11.350;2023-11-19T11:57:51;14.30;56.80
1025;DHT22;501;48.214;11.350;2023-11-19T12:00:26;14.40;57.40
1025;DHT22;501;48.214;11.350;2023-11-19T12:02:54;14.40;55.80
1025;DHT22;501;48.214;11.350;2023-11-19T12:05:21;14.40;55.60
1025;DHT22;501;48.214;11.350;2023-11-19T12:08:00;14.40;54.40
1025;DHT22;501;48.214;11.350;2023-11-19T12:10:30;14.40;55.20
1025;DHT22;501;48.214;11.350;2023-11-19T12:13:00;14.50;55.50
1025;DHT22;501;48.214;11.350;2023-11-19T12:15:26;14.60;56.40
1025;DHT22;501;48.214;11.350;2023-11-19T12:17:54;14.70;55.20
1025;DHT22;501;48.214;11.350;2023-11-19T12:20:22;14.80;55.20
1025;DHT22;501;48.214;11.350;2023-11-19T12:22:48;14.80;54.80
1025;DHT22;501;48.214;11.350;2023-11-19T12:25:16;14.90;53.90
1025;DHT22;501;48.214;11.350;2023-11-19T12:27:53;15.10;54.30
1025;DHT22;501;48.214;11.350;2023-11-19T12:30:23;15.20;54.30
1025;DHT22;501;48.214;11.350;2023-11-19T12:32:53;15.20;51.90
1025;DHT22;501;48.214;11.350;2023-11-19T12:35:22;15.20;51.10
1025;DHT22;501;48.214;11.350;2023-11-19T12:37:51;15.30;51.50
1025;DHT22;501;48.214;11.350;2023-11-19T12:40:20;15.30;52.20
1025;DHT22;501;48.214;11.350;2023-11-19T12:42:47;15.50;51.00
1025;DHT22;501;48.214;11.350;2023-11-19T12:45:13;15.90;52.30
1025;DHT22;501;48.214;11.350;2023-11-19T12:47:40;16.90;46.50
1025;DHT22;501;48.214;11.350;2023-11-19T12:50:06;18.60;41.80
1025;DHT22;501;48.214;11.350;2023-11-19T12:52:33;19.80;37.30
1025;DHT22;501;48.214;11.350;2023-11-19T12:54:59;19.70;35.40
1025;DHT22;501;48.214;11.350;2023-11-19T12:57:41;19.00;36.90
1025;DHT22;501;48.214;11.350;2023-11-19T13:00:08;18.30;38.60
1025;DHT22;501;48.214;11.350;2023-11-19T13:02:50;17.60;40.00
1025;DHT22;501;48.214;11.350;2023-11-19T13:10:26;16.10;44.80
1025;DHT22;501;48.214;11.350;2023-11-19T13:13:06;15.80;45.70
1025;DHT22;501;48.214;11.350;2023-11-19T13:15:33;15.50;46.40
1025;DHT22;501;48.214;11.350;2023-11-19T13:17:59;15.30;47.50
1025;DHT22;501;48.214;11.350;2023-11-19T13:20:25;15.20;48.40
1025;DHT22;501;48.214;11.350;2023-11-19T13:23:02;15.00;48.90
1025;DHT22;501;48.214;11.350;2023-11-19T13:25:28;14.90;49.20
1025;DHT22;501;48.214;11.350;2023-11-19T13:27:55;14.80;50.20
1025;DHT22;501;48.214;11.350;2023-11-19T13:30:25;14.80;50.50
1025;DHT22;501;48.214;11.350;2023-11-19T13:32:51;14.90;50.00
1025;DHT22;501;48.214;11.350;2023-11-19T13:35:18;14.80;50.10
1025;DHT22;501;48.214;11.350;2023-11-19T13:37:44;14.80;50.10
1025;DHT22;501;48.214;11.350;2023-11-19T13:40:11;14.70;49.50
1025;DHT22;501;48.214;11.350;2023-11-19T13:42:40;14.60;50.60
1025;DHT22;501;48.214;11.350;2023-11-19T13:45:15;14.50;50.60
1025;DHT22;501;48.214;11.350;2023-11-19T13:47:44;14.40;51.00
1025;DHT22;501;48.214;11.350;2023-11-19T13:50:14;14.30;51.70
1025;DHT22;501;48.214;11.350;2023-11-19T13:52:43;14.30;52.10
1025;DHT22;501;48.214;11.350;2023-11-19T13:55:10;14.30;52.60
1025;DHT22;501;48.214;11.350;2023-11-19T13:57:38;14.20;53.10
1025;DHT22;501;48.214;11.350;2023-11-19T14:00:05;14.20;53.10
1025;DHT22;501;48.214;11.350;2023-11-19T14:02:48;14.10;53.90
1025;DHT22;501;48.214;11.350;2023-11-19T14:05:15;14.20;54.00
1025;DHT22;501;48.214;11.350;2023-11-19T14:07:43;14.40;53.70
1025;DHT22;501;48.214;11.350;2023-11-19T14:10:09;14.70;52.30
1025;DHT22;501;48.214;11.350;2023-11-19T14:12:37;14.90;50.40
1025;DHT22;501;48.214;11.350;2023-11-19T14:15:04;15.00;49.50
1025;DHT22;501;48.214;11.350;2023-11-19T14:17:32;15.10;49.20
1025;DHT22;501;48.214;11.350;2023-11-19T14:19:57;15.10;48.80
1025;DHT22;501;48.214;11.350;2023-11-19T14:22:23;15.00;49.20
1025;DHT22;501;48.214;11.350;2023-11-19T14:24:50;14.90;49.10
1025;DHT22;501;48.214;11.350;2023-11-19T14:27:15;14.80;49.90
1025;DHT22;501;48.214;11.350;2023-11-19T14:29:42;14.70;50.70
1025;DHT22;501;48.214;11.350;2023-11-19T14:32:08;14.60;50.20
1025;DHT22;501;48.214;11.350;2023-11-19T14:34:34;14.50;50.70
1025;DHT22;501;48.214;11.350;2023-11-19T14:36:59;14.40;50.70
1025;DHT22;501;48.214;11.350;2023-11-19T14:39:26;14.40;51.00
1025;DHT22;501;48.214;11.350;2023-11-19T14:41:51;14.30;51.50
1025;DHT22;501;48.214;11.350;2023-11-19T14:44:18;14.20;50.90
1025;DHT22;501;48.214;11.350;2023-11-19T14:46:45;14.20;51.00
1025;DHT22;501;48.214;11.350;2023-11-19T14:49:11;14.10;51.30
1025;DHT22;501;48.214;11.350;2023-11-19T14:51:37;14.10;51.60
1025;DHT22;501;48.214;11.350;2023-11-19T14:54:06;13.90;51.70
1025;DHT22;501;48.214;11.350;2023-11-19T14:56:32;13.90;52.50
1025;DHT22;501;48.214;11.350;2023-11-19T14:58:58;13.80;52.50
1025;DHT22;501;48.214;11.350;2023-11-19T15:01:24;13.80;52.50
1025;DHT22;501;48.214;11.350;2023-11-19T15:03:50;13.70;52.40
1025;DHT22;501;48.214;11.350;2023-11-19T15:06:16;13.70;53.10
1025;DHT22;501;48.214;11.350;2023-11-19T15:08:42;13.60;53.40
1025;DHT22;501;48.214;11.350;2023-11-19T15:11:08;13.60;53.90
1025;DHT22;501;48.214;11.350;2023-11-19T15:13:35;13.50;54.10
1025;DHT22;501;48.214;11.350;2023-11-19T15:16:03;13.40;54.50
1025;DHT22;501;48.214;11.350;2023-11-19T15:18:31;13.40;54.60
1025;DHT22;501;48.214;11.350;2023-11-19T15:20:57;13.30;54.80
1025;DHT22;501;48.214;11.350;2023-11-19T15:23:22;13.30;55.00
1025;DHT22;501;48.214;11.350;2023-11-19T15:25:48;13.20;55.20
1025;DHT22;501;48.214;11.350;2023-11-19T15:28:14;13.20;55.50
1025;DHT22;501;48.214;11.350;2023-11-19T15:30:41;13.20;55.90
1025;DHT22;501;48.214;11.350;2023-11-19T15:33:07;13.10;56.10
1025;DHT22;501;48.214;11.350;2023-11-19T15:35:34;13.10;56.30
1025;DHT22;501;48.214;11.350;2023-11-19T15:38:00;13.00;56.70
1025;DHT22;501;48.214;11.350;2023-11-19T15:40:26;13.00;56.90
1025;DHT22;501;48.214;11.350;2023-11-19T15:42:52;13.00;57.60
1025;DHT22;501;48.214;11.350;2023-11-19T15:45:20;12.90;57.10
1025;DHT22;501;48.214;11.350;2023-11-19T15:47:46;12.90;57.70
1025;DHT22;501;48.214;11.350;2023-11-19T15:50:12;12.80;57.90
1025;DHT22;501;48.214;11.350;2023-11-19T15:52:37;12.80;58.30
1025;DHT22;501;48.214;11.350;2023-11-19T15:55:04;12.70;58.50
1025;DHT22;501;48.214;11.350;2023-11-19T15:57:29;12.70;58.90
1025;DHT22;501;48.214;11.350;2023-11-19T15:59:55;12.70;59.10
1025;DHT22;501;48.214;11.350;2023-11-19T16:02:21;12.60;59.50
1025;DHT22;501;48.214;11.350;2023-11-19T16:04:46;12.60;59.90
1025;DHT22;501;48.214;11.350;2023-11-19T16:07:16;12.60;60.00
1025;DHT22;501;48.214;11.350;2023-11-19T16:09:42;12.50;60.50
1025;DHT22;501;48.214;11.350;2023-11-19T16:12:09;12.50;60.50
1025;DHT22;501;48.214;11.350;2023-11-19T16:14:35;12.50;61.00
1025;DHT22;501;48.214;11.350;2023-11-19T16:17:00;12.40;61.80
1025;DHT22;501;48.214;11.350;2023-11-19T16:19:26;12.40;62.20
1025;DHT22;501;48.214;11.350;2023-11-19T16:21:53;12.30;62.70
1025;DHT22;501;48.214;11.350;2023-11-19T16:24:18;12.30;62.90
1025;DHT22;501;48.214;11.350;2023-11-19T16:26:44;12.30;63.30
1025;DHT22;501;48.214;11.350;2023-11-19T16:29:10;12.30;63.70
1025;DHT22;501;48.214;11.350;2023-11-19T16:31:36;12.30;63.80